Time;durP1;ratioP1;P1;durP2;ratioP2;P2;SDS_P1;SDS_P2;PMS_P1;PMS_P2;Temp;Humidity;BMP_temperature;BMP_pressure;BME280_temperature;BME280_humidity;BME280_pressure;Samples;Min_cycle;Max_cycle;Signal;HPM_P1;HPM_P2
2021/10/13 00:01:31;;;;;;;1.80;1.00;;;;;13.80;102148.00;;;;5047073;28;20615;-84
2021/10/13 00:03:59;;;;;;;1.25;0.95;;;;;13.80;102152.00;;;;5048721;28;20196;-84
2021/10/13 00:06:28;;;;;;;1.33;0.90;;;;;13.80;102153.00;;;;5045390;28;20195;-83
2021/10/13 00:08:55;;;;;;;1.20;0.93;;;;;13.80;102159.00;;;;5049388;28;20200;-83
2021/10/13 00:11:23;;;;;;;1.70;1.15;;;;;13.70;102170.00;;;;5044790;28;20199;-83
2021/10/13 00:13:50;;;;;;;2.00;1.02;;;;;13.70;102166.00;;;;5048231;28;20208;-83
2021/10/13 00:16:17;;;;;;;1.90;0.98;;;;;13.70;102169.00;;;;5050019;28;20200;-83
2021/10/13 00:18:44;;;;;;;1.55;1.08;;;;;13.70;102172.00;;;;5048516;28;20235;-83
2021/10/13 00:21:11;;;;;;;2.47;1.15;;;;;13.70;102167.00;;;;5048827;28;20207;-83
2021/10/13 00:23:40;;;;;;;3.30;0.88;;;;;13.60;102172.00;;;;5046631;28;20872;-83
2021/10/13 00:26:07;;;;;;;2.53;1.17;;;;;13.60;102172.00;;;;5046028;28;20203;-83
2021/10/13 00:28:34;;;;;;;1.45;0.85;;;;;13.60;102168.00;;;;5048473;28;20211;-83
2021/10/13 00:31:02;;;;;;;1.45;0.80;;;;;13.60;102159.00;;;;5044597;28;20203;-83
2021/10/13 00:33:29;;;;;;;1.75;1.10;;;;;13.60;102157.00;;;;5053978;28;20203;-83
2021/10/13 00:35:56;;;;;;;2.05;1.15;;;;;13.60;102149.00;;;;5036738;28;20210;-83
2021/10/13 00:38:23;;;;;;;1.30;0.98;;;;;13.60;102145.00;;;;5034256;28;20223;-83
2021/10/13 00:40:52;;;;;;;1.27;0.77;;;;;13.50;102144.00;;;;5037004;28;20203;-83
2021/10/13 00:43:20;;;;;;;2.05;0.88;;;;;13.50;102150.00;;;;5044222;28;20203;-82
2021/10/13 00:45:49;;;;;;;1.55;0.90;;;;;13.50;102148.00;;;;5041710;28;20208;-82
2021/10/13 00:48:16;;;;;;;2.20;1.15;;;;;13.50;102152.00;;;;5048300;28;20208;-82
2021/10/13 00:50:44;;;;;;;1.30;0.82;;;;;13.40;102148.00;;;;5046475;28;21086;-82
2021/10/13 00:53:12;;;;;;;1.05;0.90;;;;;13.40;102154.00;;;;5047709;28;20222;-82
2021/10/13 00:55:39;;;;;;;2.15;0.98;;;;;13.40;102156.00;;;;5036837;28;20215;-83
2021/10/13 00:58:08;;;;;;;3.65;1.40;;;;;13.40;102162.00;;;;5042129;28;20199;-83
2021/10/13 01:00:42;;;;;;;2.75;1.02;;;;;13.40;102166.00;;;;5036329;28;20204;-83
2021/10/13 01:03:17;;;;;;;3.00;0.90;;;;;13.30;102161.00;;;;5048335;28;20211;-83
2021/10/13 01:05:57;;;;;;;1.98;0.95;;;;;13.30;102165.00;;;;5048822;28;20191;-83
2021/10/13 01:08:33;;;;;;;3.70;0.80;;;;;13.30;102173.00;;;;5038321;28;20212;-83
2021/10/13 01:11:12;;;;;;;1.20;0.75;;;;;13.30;102159.00;;;;5028959;28;20920;-82
2021/10/13 01:13:49;;;;;;;1.90;1.00;;;;;13.30;102159.00;;;;5034252;28;20203;-83
2021/10/13 01:16:27;;;;;;;3.53;1.30;;;;;13.30;102155.00;;;;5033107;28;20220;-83
2021/10/13 01:19:00;;;;;;;0.70;0.60;;;;;13.30;102158.00;;;;5039374;28;20234;-83
2021/10/13 01:21:42;;;;;;;1.55;0.93;;;;;13.20;102145.00;;;;5028900;28;20725;-83
2021/10/13 01:24:33;;;;;;;1.10;1.00;;;;;13.20;102157.00;;;;5038437;28;20207;-83
2021/10/13 01:27:14;;;;;;;8.30;1.65;;;;;13.20;102155.00;;;;5047278;28;20625;-82
2021/10/13 01:29:44;;;;;;;1.10;0.73;;;;;13.20;102155.00;;;;5041325;28;20211;-83
2021/10/13 01:32:15;;;;;;;1.75;1.05;;;;;13.30;102156.00;;;;5030237;28;20211;-83
2021/10/13 01:34:46;;;;;;;1.67;0.80;;;;;13.30;102157.00;;;;5046647;28;20204;-83
2021/10/13 01:37:16;;;;;;;1.48;0.65;;;;;13.20;102153.00;;;;5048212;28;20203;-83
2021/10/13 01:39:46;;;;;;;1.48;1.02;;;;;13.20;102154.00;;;;5048477;28;20613;-83
2021/10/13 01:42:17;;;;;;;1.00;0.70;;;;;13.30;102155.00;;;;5042204;28;20204;-82
2021/10/13 01:44:48;;;;;;;1.40;0.98;;;;;13.20;102151.00;;;;5028506;28;20204;-83
2021/10/13 01:47:20;;;;;;;1.63;0.77;;;;;13.30;102154.00;;;;5028630;28;20697;-83
2021/10/13 01:49:49;;;;;;;1.30;0.80;;;;;13.30;102155.00;;;;5034734;28;20623;-83
2021/10/13 01:52:18;;;;;;;2.75;1.02;;;;;13.30;102159.00;;;;5048980;28;20200;-83
2021/10/13 01:54:45;;;;;;;1.95;1.00;;;;;13.30;102157.00;;;;5051353;28;20631;-83
2021/10/13 01:57:13;;;;;;;1.13;0.73;;;;;13.30;102157.00;;;;5038723;28;20207;-83
2021/10/13 01:59:42;;;;;;;1.92;1.08;;;;;13.30;102169.00;;;;5036428;28;20232;-83
2021/10/13 02:02:12;;;;;;;1.70;1.05;;;;;13.30;102162.00;;;;5041977;28;20204;-84
2021/10/13 02:04:43;;;;;;;3.25;0.98;;;;;13.30;102166.00;;;;5048018;28;20210;-83
2021/10/13 02:07:12;;;;;;;2.30;0.80;;;;;13.30;102169.00;;;;5053100;28;20691;-83
2021/10/13 02:09:41;;;;;;;1.13;0.73;;;;;13.30;102175.00;;;;5068701;28;20202;-83
2021/10/13 02:12:09;;;;;;;1.30;0.80;;;;;13.40;102179.00;;;;5068506;28;20202;-83
2021/10/13 02:14:39;;;;;;;2.15;0.85;;;;;13.40;102185.00;;;;5067397;28;20190;-83
2021/10/13 02:17:10;;;;;;;2.05;0.98;;;;;13.40;102189.00;;;;5040044;28;20204;-83
2021/10/13 02:19:39;;;;;;;3.15;1.02;;;;;13.40;102189.00;;;;5036768;28;20227;-83
2021/10/13 02:22:07;;;;;;;1.10;0.52;;;;;13.40;102188.00;;;;5048059;28;20214;-83
2021/10/13 02:24:40;;;;;;;4.93;0.90;;;;;13.40;102192.00;;;;5052438;28;20204;-83
2021/10/13 02:27:12;;;;;;;1.27;0.68;;;;;13.40;102186.00;;;;5046043;28;20223;-83
2021/10/13 02:29:39;;;;;;;2.22;0.85;;;;;13.40;102184.00;;;;5048476;28;20584;-82
2021/10/13 02:32:12;;;;;;;1.33;0.70;;;;;13.40;102188.00;;;;5048147;28;20200;-83
2021/10/13 02:34:39;;;;;;;0.88;0.80;;;;;13.50;102183.00;;;;5028164;28;20211;-83
2021/10/13 02:37:07;;;;;;;1.02;0.50;;;;;13.50;102181.00;;;;5040474;28;21083;-83
2021/10/13 02:39:34;;;;;;;0.85;0.68;;;;;13.50;102186.00;;;;5056520;28;20231;-83
2021/10/13 02:42:03;;;;;;;1.38;0.70;;;;;13.40;102178.00;;;;5046770;28;20218;-83
2021/10/13 02:44:31;;;;;;;2.05;0.80;;;;;13.50;102190.00;;;;5045905;28;20199;-83
2021/10/13 02:47:04;;;;;;;1.63;0.73;;;;;13.40;102182.00;;;;5035224;28;20577;-83
2021/10/13 02:49:42;;;;;;;0.80;0.60;;;;;13.40;102194.00;;;;5044586;28;20262;-83
2021/10/13 02:52:32;;;;;;;0.77;0.57;;;;;13.50;102195.00;;;;5028355;28;20208;-83
2021/10/13 02:55:03;;;;;;;1.58;0.70;;;;;13.50;102203.00;;;;5054406;28;20219;-83
2021/10/13 02:57:36;;;;;;;1.77;0.70;;;;;13.50;102203.00;;;;5043060;28;20715;-83
2021/10/13 03:00:07;;;;;;;0.95;0.57;;;;;13.50;102198.00;;;;5051951;28;20989;-83
2021/10/13 03:02:40;;;;;;;1.20;0.90;;;;;13.50;102195.00;;;;5048818;28;20644;-83
2021/10/13 03:05:09;;;;;;;1.38;0.80;;;;;13.50;102207.00;;;;5051094;28;20195;-83
2021/10/13 03:07:41;;;;;;;3.83;0.80;;;;;13.50;102201.00;;;;5037854;28;20216;-83
2021/10/13 03:10:11;;;;;;;0.93;0.57;;;;;13.50;102197.00;;;;5031591;28;20200;-82
2021/10/13 03:12:41;;;;;;;2.42;0.82;;;;;13.50;102197.00;;;;5030842;28;20192;-83
2021/10/13 03:15:12;;;;;;;1.33;0.80;;;;;13.50;102195.00;;;;5031066;28;20196;-83
2021/10/13 03:17:42;;;;;;;0.88;0.50;;;;;13.50;102194.00;;;;5031797;28;20215;-83
2021/10/13 03:20:13;;;;;;;1.23;0.57;;;;;13.50;102203.00;;;;5031725;28;20242;-82
2021/10/13 03:22:42;;;;;;;2.22;0.60;;;;;13.50;102200.00;;;;5043062;28;20192;-83
2021/10/13 03:25:11;;;;;;;1.13;0.55;;;;;13.50;102198.00;;;;5035326;28;20270;-83
2021/10/13 03:27:38;;;;;;;0.98;0.70;;;;;13.50;102204.00;;;;5047454;28;20231;-83
2021/10/13 03:30:08;;;;;;;1.00;0.60;;;;;13.50;102209.00;;;;5048605;28;20195;-83
2021/10/13 03:32:35;;;;;;;3.42;1.10;;;;;13.50;102217.00;;;;5031098;28;20250;-83
2021/10/13 03:35:03;;;;;;;0.60;0.47;;;;;13.50;102222.00;;;;5031580;28;20192;-83
2021/10/13 03:37:31;;;;;;;1.33;0.63;;;;;13.40;102227.00;;;;5038587;28;20214;-82
2021/10/13 03:39:59;;;;;;;0.95;0.68;;;;;13.50;102227.00;;;;5037425;28;20235;-82
2021/10/13 03:42:26;;;;;;;1.35;0.80;;;;;13.40;102232.00;;;;5035167;28;20230;-83
2021/10/13 03:44:53;;;;;;;1.20;0.65;;;;;13.40;102226.00;;;;5046727;28;20211;-83
2021/10/13 03:47:20;;;;;;;1.83;0.60;;;;;13.40;102230.00;;;;5033939;28;20386;-82
2021/10/13 03:49:48;;;;;;;3.85;0.80;;;;;13.40;102233.00;;;;5045840;28;20661;-81
2021/10/13 03:52:15;;;;;;;1.58;0.60;;;;;13.40;102241.00;;;;5051304;28;20192;-83
2021/10/13 03:54:43;;;;;;;1.67;0.60;;;;;13.40;102227.00;;;;5059597;28;20203;-83
2021/10/13 03:57:11;;;;;;;0.80;0.47;;;;;13.40;102232.00;;;;5034616;28;20195;-82
2021/10/13 03:59:39;;;;;;;0.85;0.65;;;;;13.40;102231.00;;;;5031259;28;20306;-83
2021/10/13 04:02:06;;;;;;;0.85;0.50;;;;;13.40;102227.00;;;;5043377;28;20202;-83
2021/10/13 04:04:33;;;;;;;2.75;0.82;;;;;13.40;102227.00;;;;5048993;28;20192;-83
2021/10/13 04:07:00;;;;;;;1.25;0.60;;;;;13.40;102231.00;;;;5051208;28;20204;-83
2021/10/13 04:09:28;;;;;;;1.50;0.93;;;;;13.40;102228.00;;;;5050367;28;20211;-83
2021/10/13 04:11:56;;;;;;;2.70;0.60;;;;;13.40;102226.00;;;;5050588;28;20192;-83
2021/10/13 04:14:23;;;;;;;2.35;0.70;;;;;13.40;102227.00;;;;5040243;28;20200;-82
2021/10/13 04:16:51;;;;;;;1.10;0.70;;;;;13.40;102217.00;;;;5050283;28;20199;-82
2021/10/13 04:19:18;;;;;;;1.45;0.77;;;;;13.40;102217.00;;;;5050988;28;20203;-83
2021/10/13 04:21:45;;;;;;;1.33;0.70;;;;;13.40;102215.00;;;;5050804;28;20646;-83
2021/10/13 04:24:12;;;;;;;1.50;0.90;;;;;13.40;102215.00;;;;5051939;28;20204;-83
2021/10/13 04:26:40;;;;;;;0.70;0.50;;;;;13.40;102217.00;;;;5050331;28;20198;-82
2021/10/13 04:29:08;;;;;;;2.40;0.90;;;;;13.40;102225.00;;;;5041757;28;20205;-83
2021/10/13 04:31:36;;;;;;;1.63;0.80;;;;;13.40;102231.00;;;;5052977;28;20208;-83
2021/10/13 04:34:03;;;;;;;3.13;0.95;;;;;13.40;102234.00;;;;5041466;28;20650;-82
2021/10/13 04:36:30;;;;;;;4.30;0.77;;;;;13.40;102229.00;;;;5050313;28;20202;-83
2021/10/13 04:38:57;;;;;;;1.00;0.60;;;;;13.40;102226.00;;;;5034196;28;20605;-82
2021/10/13 04:41:25;;;;;;;2.80;1.00;;;;;13.40;102237.00;;;;5029951;28;20595;-81
2021/10/13 04:43:52;;;;;;;2.30;0.88;;;;;13.40;102238.00;;;;5040526;28;20199;-82
2021/10/13 04:46:20;;;;;;;1.60;0.70;;;;;13.40;102246.00;;;;5049441;28;20222;-82
2021/10/13 04:48:48;;;;;;;1.23;0.80;;;;;13.40;102243.00;;;;5047582;28;20208;-83
2021/10/13 04:51:15;;;;;;;1.67;0.68;;;;;13.40;102246.00;;;;5033402;28;20199;-82
2021/10/13 04:53:42;;;;;;;0.90;0.60;;;;;13.30;102247.00;;;;5039949;28;20219;-82
2021/10/13 04:56:09;;;;;;;1.23;0.75;;;;;13.30;102248.00;;;;5060623;28;20187;-82
2021/10/13 04:58:37;;;;;;;1.85;0.60;;;;;13.30;102253.00;;;;5030114;28;20557;-82
2021/10/13 05:01:04;;;;;;;2.92;0.90;;;;;13.30;102259.00;;;;5039306;28;20226;-82
2021/10/13 05:03:33;;;;;;;1.70;0.70;;;;;13.30;102248.00;;;;5043820;28;20235;-83
2021/10/13 05:06:00;;;;;;;1.05;0.80;;;;;13.30;102255.00;;;;5041680;28;20219;-83
2021/10/13 05:08:27;;;;;;;0.85;0.45;;;;;13.30;102249.00;;;;5031103;28;20670;-83
2021/10/13 05:10:54;;;;;;;1.00;0.70;;;;;13.30;102250.00;;;;5068318;28;20199;-82
2021/10/13 05:13:22;;;;;;;1.85;0.88;;;;;13.30;102253.00;;;;5033424;28;20195;-82
2021/10/13 05:15:49;;;;;;;1.58;0.60;;;;;13.30;102253.00;;;;5048756;28;20203;-82
2021/10/13 05:18:16;;;;;;;2.35;0.90;;;;;13.30;102246.00;;;;5049323;28;20202;-81
2021/10/13 05:20:45;;;;;;;0.82;0.63;;;;;13.20;102259.00;;;;5049422;28;20235;-81
2021/10/13 05:23:12;;;;;;;0.93;0.60;;;;;13.20;102254.00;;;;5045368;28;20242;-82
2021/10/13 05:25:39;;;;;;;1.52;0.70;;;;;13.20;102251.00;;;;5029489;28;20200;-82
2021/10/13 05:28:07;;;;;;;1.83;1.00;;;;;13.20;102251.00;;;;5029274;28;20211;-81
2021/10/13 05:30:34;;;;;;;2.20;0.98;;;;;13.20;102255.00;;;;5033555;28;20666;-81
2021/10/13 05:33:01;;;;;;;1.27;0.80;;;;;13.20;102255.00;;;;5037445;28;20203;-81
2021/10/13 05:35:28;;;;;;;1.65;0.95;;;;;13.20;102257.00;;;;5038191;28;20229;-83
2021/10/13 05:37:57;;;;;;;6.78;1.00;;;;;13.20;102255.00;;;;5037509;28;20226;-81
2021/10/13 05:40:24;;;;;;;1.85;1.13;;;;;13.20;102261.00;;;;5039201;28;20629;-81
2021/10/13 05:42:51;;;;;;;1.85;1.10;;;;;13.20;102261.00;;;;5031876;28;20211;-81
2021/10/13 05:45:19;;;;;;;2.15;1.08;;;;;13.20;102258.00;;;;5036943;28;20207;-81
2021/10/13 05:47:46;;;;;;;2.50;1.35;;;;;13.20;102259.00;;;;5049284;28;20199;-80
2021/10/13 05:50:13;;;;;;;1.20;0.93;;;;;13.20;102259.00;;;;5042110;28;20687;-81
2021/10/13 05:52:41;;;;;;;1.25;1.00;;;;;13.20;102267.00;;;;5029234;28;20200;-80
2021/10/13 05:55:10;;;;;;;1.50;0.88;;;;;13.10;102281.00;;;;5028135;28;20227;-79
2021/10/13 05:57:38;;;;;;;1.80;1.00;;;;;13.20;102279.00;;;;5029674;28;20208;-80
2021/10/13 06:00:06;;;;;;;1.63;1.00;;;;;13.20;102278.00;;;;5028669;28;20224;-81
2021/10/13 06:02:34;;;;;;;1.10;0.75;;;;;13.20;102282.00;;;;5028879;28;20207;-79
2021/10/13 06:05:01;;;;;;;1.20;0.68;;;;;13.20;102281.00;;;;5032534;28;20282;-82
2021/10/13 06:07:29;;;;;;;2.97;0.75;;;;;13.30;102278.00;;;;5040705;28;20195;-80
2021/10/13 06:09:56;;;;;;;0.93;0.57;;;;;13.30;102279.00;;;;5051760;28;20199;-81
2021/10/13 06:12:24;;;;;;;1.67;1.20;;;;;13.30;102275.00;;;;5065107;28;20195;-81
2021/10/13 06:14:52;;;;;;;1.45;0.82;;;;;13.30;102278.00;;;;5051962;28;20219;-81
2021/10/13 06:17:20;;;;;;;3.53;1.15;;;;;13.40;102274.00;;;;5054880;28;20580;-80
2021/10/13 06:19:48;;;;;;;3.05;0.88;;;;;13.40;102276.00;;;;5043811;28;20208;-79
2021/10/13 06:22:15;;;;;;;2.65;1.10;;;;;13.40;102284.00;;;;5037494;28;20693;-79
2021/10/13 06:24:42;;;;;;;1.98;0.88;;;;;13.40;102283.00;;;;5046121;28;20677;-79
2021/10/13 06:27:09;;;;;;;1.35;1.08;;;;;13.40;102281.00;;;;5028407;28;20236;-79
2021/10/13 06:29:38;;;;;;;1.38;0.88;;;;;13.50;102285.00;;;;5032687;28;20192;-79
2021/10/13 06:32:06;;;;;;;4.32;1.13;;;;;13.50;102286.00;;;;5046380;28;20195;-79
2021/10/13 06:34:33;;;;;;;0.93;0.73;;;;;13.50;102291.00;;;;5043981;28;21030;-78
2021/10/13 06:37:01;;;;;;;1.75;1.08;;;;;13.60;102295.00;;;;5040446;28;20210;-78
2021/10/13 06:39:28;;;;;;;1.33;0.80;;;;;13.60;102292.00;;;;5050562;28;20235;-79
2021/10/13 06:41:55;;;;;;;2.10;0.93;;;;;13.60;102302.00;;;;5052129;28;20234;-79
2021/10/13 06:44:23;;;;;;;1.77;0.88;;;;;13.60;102298.00;;;;5051744;28;20199;-80
2021/10/13 06:46:54;;;;;;;1.67;0.95;;;;;13.60;102311.00;;;;5051934;28;20282;-79
2021/10/13 06:49:21;;;;;;;1.30;0.93;;;;;13.60;102308.00;;;;5044952;28;20290;-79
2021/10/13 06:51:48;;;;;;;2.78;1.17;;;;;13.70;102312.00;;;;5051449;28;20206;-79
2021/10/13 06:54:16;;;;;;;3.20;1.08;;;;;13.70;102322.00;;;;5045422;28;20303;-80
2021/10/13 06:56:43;;;;;;;1.98;1.17;;;;;13.70;102324.00;;;;5039244;28;20683;-80
2021/10/13 06:59:11;;;;;;;1.45;1.10;;;;;13.70;102335.00;;;;5060439;28;20657;-80
2021/10/13 07:01:38;;;;;;;1.00;0.90;;;;;13.70;102329.00;;;;5068673;28;20219;-80
2021/10/13 07:04:06;;;;;;;1.05;0.75;;;;;13.70;102331.00;;;;5071368;28;21096;-80
2021/10/13 07:06:34;;;;;;;3.20;1.42;;;;;13.80;102342.00;;;;5032073;28;20208;-80
2021/10/13 07:09:01;;;;;;;2.05;1.48;;;;;13.80;102344.00;;;;5031852;28;20211;-80
2021/10/13 07:11:28;;;;;;;4.50;2.10;;;;;13.80;102344.00;;;;5031638;28;20207;-81
2021/10/13 07:13:55;;;;;;;2.97;2.10;;;;;13.90;102344.00;;;;5040679;28;20200;-80
2021/10/13 07:16:23;;;;;;;3.25;2.35;;;;;13.90;102342.00;;;;5062667;28;20657;-80
2021/10/13 07:18:50;;;;;;;2.95;1.80;;;;;13.90;102342.00;;;;5039000;28;20192;-79
2021/10/13 07:21:19;;;;;;;3.55;1.92;;;;;14.00;102341.00;;;;5035678;28;20570;-79
2021/10/13 07:23:46;;;;;;;4.47;2.15;;;;;14.00;102343.00;;;;5051752;28;20204;-80
2021/10/13 07:26:13;;;;;;;3.50;2.22;;;;;14.10;102335.00;;;;5046287;28;20217;-80
2021/10/13 07:28:42;;;;;;;5.63;2.65;;;;;14.10;102343.00;;;;5038206;28;20207;-78
2021/10/13 07:31:09;;;;;;;2.80;2.40;;;;;14.20;102337.00;;;;5031376;28;20250;-78
2021/10/13 07:33:37;;;;;;;3.22;2.28;;;;;14.20;102352.00;;;;5031580;28;20200;-79
2021/10/13 07:36:05;;;;;;;2.95;2.40;;;;;14.30;102353.00;;;;5030576;28;20623;-78
2021/10/13 07:38:34;;;;;;;3.05;2.00;;;;;14.30;102347.00;;;;5033903;28;20242;-79
2021/10/13 07:41:01;;;;;;;2.72;1.73;;;;;14.40;102348.00;;;;5051071;28;20612;-78
2021/10/13 07:43:30;;;;;;;2.90;2.10;;;;;14.50;102345.00;;;;5039669;28;20204;-78
2021/10/13 07:45:57;;;;;;;2.38;1.77;;;;;14.60;102346.00;;;;5050315;28;20196;-79
2021/10/13 07:48:25;;;;;;;3.15;1.90;;;;;14.60;102347.00;;;;5050521;28;20191;-78
2021/10/13 07:50:55;;;;;;;2.60;1.55;;;;;14.80;102354.00;;;;5040905;28;20287;-78
2021/10/13 07:53:22;;;;;;;3.42;1.30;;;;;14.90;102353.00;;;;5041710;28;20287;-78
2021/10/13 07:55:51;;;;;;;2.67;1.23;;;;;15.00;102348.00;;;;5044277;28;20219;-78
2021/10/13 07:58:18;;;;;;;2.33;1.13;;;;;15.10;102357.00;;;;5031763;28;20207;-78
2021/10/13 08:00:45;;;;;;;1.20;0.80;;;;;15.20;102356.00;;;;5031084;28;20787;-79
2021/10/13 08:03:12;;;;;;;2.65;0.90;;;;;15.30;102357.00;;;;5031027;28;20207;-77
2021/10/13 08:05:40;;;;;;;2.15;0.93;;;;;15.40;102355.00;;;;5029796;28;20579;-77
2021/10/13 08:08:07;;;;;;;2.67;1.02;;;;;15.50;102356.00;;;;5031188;28;20200;-79
2021/10/13 08:10:34;;;;;;;2.17;1.10;;;;;15.60;102373.00;;;;5042142;28;20207;-79
2021/10/13 08:13:03;;;;;;;3.85;1.05;;;;;15.70;102369.00;;;;5043380;28;20204;-79
2021/10/13 08:15:30;;;;;;;2.95;1.17;;;;;15.80;102374.00;;;;5043757;28;20206;-79
2021/10/13 08:17:58;;;;;;;3.00;1.27;;;;;15.90;102384.00;;;;5029375;28;20200;-78
2021/10/13 08:20:25;;;;;;;1.52;0.88;;;;;16.00;102366.00;;;;5035000;28;20208;-80
2021/10/13 08:22:52;;;;;;;3.85;1.10;;;;;16.10;102381.00;;;;5052194;28;20209;-78
2021/10/13 08:25:20;;;;;;;3.55;1.15;;;;;16.20;102373.00;;;;5044578;28;20197;-77
2021/10/13 08:27:47;;;;;;;1.75;0.98;;;;;16.30;102371.00;;;;5031110;28;20214;-78
2021/10/13 08:30:16;;;;;;;1.80;0.80;;;;;16.40;102373.00;;;;5039907;28;20207;-78
2021/10/13 08:32:43;;;;;;;2.10;0.57;;;;;16.50;102366.00;;;;5050693;28;20212;-78
2021/10/13 08:35:11;;;;;;;1.95;0.98;;;;;16.70;102376.00;;;;5050953;28;20202;-78
2021/10/13 08:37:38;;;;;;;2.13;0.60;;;;;16.80;102372.00;;;;5041251;28;20196;-78
2021/10/13 08:40:06;;;;;;;4.97;1.20;;;;;16.90;102375.00;;;;5030245;28;20728;-78
2021/10/13 08:42:34;;;;;;;0.98;0.63;;;;;17.00;102384.00;;;;5032952;28;20232;-79
2021/10/13 08:45:01;;;;;;;1.92;1.00;;;;;17.10;102385.00;;;;5049542;28;20192;-79
2021/10/13 08:47:30;;;;;;;3.28;0.93;;;;;17.10;102383.00;;;;5038204;28;20215;-78
2021/10/13 08:49:57;;;;;;;3.72;1.30;;;;;17.20;102383.00;;;;5032428;28;20212;-78
2021/10/13 08:52:24;;;;;;;1.60;0.68;;;;;17.30;102391.00;;;;5042132;28;20192;-78
2021/10/13 08:54:55;;;;;;;1.13;0.68;;;;;17.40;102388.00;;;;5047677;28;20219;-78
2021/10/13 08:57:24;;;;;;;3.95;0.85;;;;;17.40;102398.00;;;;5030861;28;20200;-77
2021/10/13 08:59:53;;;;;;;1.88;0.65;;;;;17.50;102391.00;;;;5029820;28;20200;-77
2021/10/13 09:02:40;;;;;;;3.08;1.00;;;;;17.50;102395.00;;;;5036450;28;20231;-77
2021/10/13 09:05:12;;;;;;;2.78;1.02;;;;;17.70;102397.00;;;;5045372;28;20242;-78
2021/10/13 09:07:49;;;;;;;1.30;0.90;;;;;17.80;102393.00;;;;5048197;28;20203;-80
2021/10/13 09:10:25;;;;;;;2.45;0.82;;;;;17.90;102400.00;;;;5029415;28;20291;-79
2021/10/13 09:12:52;;;;;;;2.03;0.80;;;;;18.00;102403.00;;;;5028718;28;20212;-80
2021/10/13 09:15:25;;;;;;;1.52;0.80;;;;;18.10;102408.00;;;;5057020;28;20201;-80
2021/10/13 09:17:58;;;;;;;3.28;0.88;;;;;18.20;102403.00;;;;5069542;28;20608;-81
2021/10/13 09:20:27;;;;;;;2.10;1.05;;;;;18.30;102401.00;;;;5045280;28;20775;-82
2021/10/13 09:23:04;;;;;;;1.98;0.80;;;;;18.40;102395.00;;;;5029287;28;20224;-80
2021/10/13 09:25:33;;;;;;;3.30;1.05;;;;;18.60;102396.00;;;;5036974;28;20207;-81
2021/10/13 09:28:01;;;;;;;1.52;0.95;;;;;18.80;102402.00;;;;5052341;28;20199;-81
2021/10/13 09:30:31;;;;;;;2.90;0.80;;;;;18.80;102407.00;;;;5044309;28;20590;-81
2021/10/13 09:33:12;;;;;;;1.67;0.82;;;;;18.90;102405.00;;;;5032010;28;20204;-79
2021/10/13 09:35:44;;;;;;;2.50;1.10;;;;;19.00;102408.00;;;;5041654;28;20203;-80
2021/10/13 09:38:20;;;;;;;1.55;0.55;;;;;19.10;102407.00;;;;5044507;28;20291;-81
2021/10/13 09:40:49;;;;;;;2.78;0.63;;;;;19.10;102408.00;;;;5029869;28;20661;-81
2021/10/13 09:43:30;;;;;;;0.50;0.40;;;;;19.00;102409.00;;;;5040826;28;20192;-81
2021/10/13 09:46:09;;;;;;;2.35;0.80;;;;;19.10;102411.00;;;;5048615;28;20210;-80
2021/10/13 09:48:39;;;;;;;1.05;0.35;;;;;19.20;102414.00;;;;5048232;28;20203;-82
2021/10/13 09:51:19;;;;;;;2.22;0.40;;;;;19.20;102410.00;;;;5041227;28;20536;-81
2021/10/13 09:53:48;;;;;;;0.90;0.25;;;;;19.40;102412.00;;;;5040208;28;20273;-81
2021/10/13 09:56:33;;;;;;;1.02;0.30;;;;;19.40;102412.00;;;;5037533;28;20194;-81
2021/10/13 09:59:12;;;;;;;1.75;0.20;;;;;19.50;102414.00;;;;5033683;28;20200;-80
2021/10/13 10:01:42;;;;;;;0.45;0.20;;;;;19.60;102411.00;;;;5030686;28;20224;-82
2021/10/13 10:04:18;;;;;;;1.65;0.50;;;;;19.70;102416.00;;;;5035387;28;20207;-83
2021/10/13 10:06:50;;;;;;;1.30;0.38;;;;;19.70;102413.00;;;;5036992;28;20196;-84
2021/10/13 10:09:19;;;;;;;2.80;0.50;;;;;19.80;102416.00;;;;5042155;28;20207;-84
2021/10/13 10:11:47;;;;;;;3.20;0.50;;;;;19.80;102417.00;;;;5045418;28;20255;-84
2021/10/13 10:14:43;;;;;;;1.00;0.35;;;;;19.80;102425.00;;;;5050562;28;20757;-84
2021/10/13 10:17:10;;;;;;;2.60;0.50;;;;;19.90;102429.00;;;;5043450;28;20628;-83
2021/10/13 10:19:43;;;;;;;1.10;0.38;;;;;19.90;102429.00;;;;5029426;28;20693;-84
2021/10/13 10:22:13;;;;;;;1.80;0.40;;;;;20.10;102433.00;;;;5042623;28;20223;-84
2021/10/13 10:24:51;;;;;;;0.20;0.10;;;;;20.10;102429.00;;;;5034633;28;20200;-85
2021/10/13 10:27:36;;;;;;;2.60;0.75;;;;;20.30;102434.00;;;;5040268;28;20231;-84
2021/10/13 10:30:20;;;;;;;1.40;0.52;;;;;20.40;102429.00;;;;5035130;28;20212;-85
2021/10/13 10:33:16;;;;;;;0.65;0.13;;;;;20.60;102433.00;;;;5049534;28;20206;-85
2021/10/13 10:35:46;;;;;;;1.08;0.30;;;;;20.80;102430.00;;;;5051255;28;20235;-82
2021/10/13 10:38:18;;;;;;;3.15;0.35;;;;;21.00;102416.00;;;;5034650;28;20208;-82
2021/10/13 10:40:45;;;;;;;1.92;0.30;;;;;21.10;102419.00;;;;5034678;28;20231;-83
2021/10/13 10:43:25;;;;;;;1.17;0.35;;;;;21.10;102426.00;;;;5034900;28;20219;-82
2021/10/13 10:45:55;;;;;;;4.10;0.52;;;;;21.20;102429.00;;;;5035911;28;20204;-83
2021/10/13 10:48:22;;;;;;;0.93;0.28;;;;;21.30;102433.00;;;;5045452;28;20240;-83
2021/10/13 10:50:59;;;;;;;2.15;0.43;;;;;21.30;102428.00;;;;5034810;28;20223;-82
2021/10/13 10:53:29;;;;;;;2.15;0.45;;;;;21.40;102423.00;;;;5032736;28;20608;-82
2021/10/13 10:56:00;;;;;;;1.45;0.20;;;;;21.40;102438.00;;;;5029046;28;20197;-81
2021/10/13 10:58:30;;;;;;;1.85;0.35;;;;;21.40;102443.00;;;;5027850;28;20207;-82
2021/10/13 11:01:07;;;;;;;1.15;0.20;;;;;21.40;102434.00;;;;5027347;28;20193;-82
2021/10/13 11:03:39;;;;;;;2.53;0.20;;;;;21.40;102436.00;;;;5028803;28;20318;-83
2021/10/13 11:06:14;;;;;;;1.05;0.10;;;;;21.30;102430.00;;;;5027497;28;20212;-82
2021/10/13 11:09:00;;;;;;;1.10;0.22;;;;;21.30;102434.00;;;;5027923;28;20199;-82
2021/10/13 11:11:29;;;;;;;0.57;0.30;;;;;21.40;102431.00;;;;5027401;28;20189;-81
2021/10/13 11:14:03;;;;;;;1.60;0.30;;;;;21.30;102428.00;;;;5028438;28;20197;-82
2021/10/13 11:16:32;;;;;;;0.80;0.13;;;;;21.30;102425.00;;;;5031715;28;20676;-83
2021/10/13 11:19:11;;;;;;;0.47;0.30;;;;;21.20;102430.00;;;;5031719;28;20200;-81
2021/10/13 11:21:41;;;;;;;1.33;0.20;;;;;21.20;102424.00;;;;5038756;28;20223;-82
2021/10/13 11:24:09;;;;;;;1.30;0.25;;;;;21.20;102429.00;;;;5036981;28;20261;-82
2021/10/13 11:26:36;;;;;;;1.55;0.40;;;;;21.10;102429.00;;;;5031535;28;20204;-81
2021/10/13 11:29:15;;;;;;;0.47;0.20;;;;;21.10;102428.00;;;;5031383;28;20207;-82
2021/10/13 11:31:42;;;;;;;0.35;0.10;;;;;21.00;102434.00;;;;5030617;28;20615;-82
2021/10/13 11:34:10;;;;;;;2.30;0.65;;;;;20.90;102438.00;;;;5031000;28;20204;-82
2021/10/13 11:36:50;;;;;;;4.22;0.65;;;;;20.80;102437.00;;;;5033178;28;20210;-81
2021/10/13 11:39:22;;;;;;;2.72;0.40;;;;;20.70;102442.00;;;;5042667;28;20220;-80
2021/10/13 11:41:50;;;;;;;4.80;0.85;;;;;20.70;102440.00;;;;5039046;28;20237;-80
2021/10/13 11:44:20;;;;;;;2.28;0.30;;;;;20.60;102441.00;;;;5049290;28;20208;-80
2021/10/13 11:46:59;;;;;;;0.98;0.25;;;;;20.50;102441.00;;;;5038412;28;20200;-80
2021/10/13 11:49:27;;;;;;;1.90;0.60;;;;;20.50;102446.00;;;;5046914;28;20368;-82
2021/10/13 11:52:12;;;;;;;1.52;0.32;;;;;20.40;102444.00;;;;5035265;28;20211;-81
2021/10/13 11:54:41;;;;;;;0.80;0.40;;;;;20.50;102448.00;;;;5031209;28;20208;-82
2021/10/13 11:57:08;;;;;;;1.70;0.20;;;;;20.50;102454.00;;;;5031243;28;20204;-80
2021/10/13 11:59:36;;;;;;;0.70;0.30;;;;;20.50;102456.00;;;;5037488;28;20206;-81
2021/10/13 12:02:15;;;;;;;1.38;0.30;;;;;20.40;102445.00;;;;5043944;28;20658;-80
2021/10/13 12:04:51;;;;;;;0.20;0.10;;;;;20.40;102450.00;;;;5030993;28;20442;-80
2021/10/13 12:07:22;;;;;;;1.45;0.20;;;;;20.50;102455.00;;;;5038595;28;20214;-81
2021/10/13 12:09:57;;;;;;;2.72;0.45;;;;;20.50;102444.00;;;;5037777;28;20208;-80
2021/10/13 12:12:25;;;;;;;1.50;0.30;;;;;20.50;102446.00;;;;5033708;28;20230;-80
2021/10/13 12:14:52;;;;;;;1.52;0.38;;;;;20.60;102450.00;;;;5030178;28;20196;-79
2021/10/13 12:17:27;;;;;;;2.95;0.28;;;;;20.50;102443.00;;;;5044448;28;20208;-79
2021/10/13 12:19:55;;;;;;;0.85;0.20;;;;;20.60;102440.00;;;;5030785;28;20226;-83
2021/10/13 12:22:23;;;;;;;3.60;0.30;;;;;20.60;102447.00;;;;5040957;28;20220;-83